Time;durP1;ratioP1;P1;durP2;ratioP2;P2;SDS_P1;SDS_P2;PMS_P1;PMS_P2;Temp;Humidity;BMP_temperature;BMP_pressure;BME280_temperature;BME280_humidity;BME280_pressure;Samples;Min_cycle;Max_cycle;Signal;HPM_P1;HPM_P2
2023/09/05 04:05:18;;;;;;;7.15;3.60;;;;;;;19.21;59.77;101306.62;5612135;31;74857;-56
2023/09/05 04:08:22;;;;;;;6.62;4.20;;;;;;;19.21;59.77;101306.62;5603491;31;34210;-56
2023/09/05 04:11:25;;;;;;;5.65;3.60;;;;;;;18.72;61.39;101311.25;5603290;31;34165;-56
2023/09/05 04:14:27;;;;;;;11.05;3.80;;;;;;;18.84;66.42;101313.34;5599024;31;33307;-57
2023/09/05 04:17:30;;;;;;;6.00;3.40;;;;;;;18.97;67.24;101317.88;5601794;31;33569;-57
2023/09/05 04:20:32;;;;;;;5.95;3.58;;;;;;;19.07;64.00;101316.81;5603345;31;34342;-58
2023/09/05 04:23:35;;;;;;;5.40;3.78;;;;;;;19.12;68.14;101319.41;5601548;31;34012;-56
2023/09/05 04:26:39;;;;;;;5.35;3.30;;;;;;;19.21;62.79;101318.31;5602977;31;33745;-56
2023/09/05 04:29:41;;;;;;;4.57;3.65;;;;;;;19.07;60.72;101317.59;5603255;31;33355;-57
2023/09/05 04:32:44;;;;;;;6.70;3.45;;;;;;;19.04;72.89;101317.44;5603425;31;33550;-57
2023/09/05 04:35:46;;;;;;;4.15;3.55;;;;;;;19.12;62.23;101327.53;5592827;31;33448;-57
2023/09/05 04:38:50;;;;;;;5.90;3.70;;;;;;;19.01;62.99;101318.88;5583692;32;33645;-57
2023/09/05 04:41:52;;;;;;;5.28;3.45;;;;;;;18.99;66.34;101319.19;5579767;32;33865;-57
2023/09/05 04:44:54;;;;;;;7.03;3.67;;;;;;;19.03;61.48;101324.78;5583066;31;33538;-57
2023/09/05 04:47:57;;;;;;;5.85;4.12;;;;;;;19.07;62.99;101320.31;5583360;31;33620;-57
2023/09/05 04:51:02;;;;;;;7.12;3.75;;;;;;;19.10;69.38;101327.84;5583333;32;33645;-57
2023/09/05 04:54:05;;;;;;;5.93;3.80;;;;;;;19.05;62.61;101324.50;5582413;31;33708;-57
2023/09/05 04:57:10;;;;;;;12.35;4.72;;;;;;;19.20;72.58;101330.31;5583422;31;33583;-57
2023/09/05 05:00:13;;;;;;;5.95;3.53;;;;;;;19.22;68.12;101329.97;5583062;32;34142;-57
2023/09/05 05:03:16;;;;;;;4.68;3.40;;;;;;;19.23;63.13;101337.81;5582951;31;34352;-56
2023/09/05 05:06:18;;;;;;;6.62;3.90;;;;;;;19.29;68.30;101341.19;5583154;32;33616;-57
2023/09/05 05:09:21;;;;;;;5.05;3.30;;;;;;;19.35;62.33;101345.37;5579374;32;33542;-57
2023/09/05 05:12:24;;;;;;;5.05;3.55;;;;;;;19.31;63.45;101346.31;5582624;32;33592;-57
2023/09/05 05:15:26;;;;;;;7.00;3.70;;;;;;;19.30;62.89;101340.06;5574143;32;34284;-57
2023/09/05 05:18:29;;;;;;;5.12;3.28;;;;;;;19.22;62.98;101340.84;5567040;32;33561;-56
2023/09/05 05:21:31;;;;;;;6.43;3.72;;;;;;;19.16;61.11;101337.47;5554136;32;36783;-58
2023/09/05 05:24:33;;;;;;;6.55;3.58;;;;;;;19.24;71.12;101344.88;5553859;32;33812;-58
2023/09/05 05:27:36;;;;;;;5.55;3.95;;;;;;;19.27;62.05;101342.63;5569966;32;33665;-57
2023/09/05 05:30:38;;;;;;;5.78;3.83;;;;;;;19.33;67.84;101350.31;5569382;32;33616;-57
2023/09/05 05:33:41;;;;;;;11.30;3.70;;;;;;;19.45;72.77;101347.00;5569858;32;34306;-57
2023/09/05 05:36:43;;;;;;;7.40;3.65;;;;;;;19.44;63.00;101346.19;5569267;32;33694;-57
2023/09/05 05:39:45;;;;;;;5.97;3.60;;;;;;;19.54;65.05;101344.31;5557540;32;33514;-57
2023/09/05 05:42:48;;;;;;;4.57;3.45;;;;;;;19.52;65.17;101350.03;5549752;32;33532;-56
2023/09/05 05:45:51;;;;;;;8.75;3.80;;;;;;;19.61;59.87;101347.34;5560781;32;34349;-57
2023/09/05 05:48:57;;;;;;;19.00;3.72;;;;;;;19.70;63.52;101345.44;5568863;32;33313;-57
2023/09/05 05:52:03;;;;;;;10.73;3.58;;;;;;;19.88;59.94;101347.09;5568886;32;33490;-56
2023/09/05 05:55:06;;;;;;;5.32;3.50;;;;;;;20.03;60.14;101351.22;5568299;32;33584;-58
2023/09/05 05:58:08;;;;;;;8.18;4.00;;;;;;;20.13;62.00;101356.38;5569395;32;33909;-56
2023/09/05 06:01:11;;;;;;;6.10;3.97;;;;;;;20.19;60.08;101349.63;5568526;32;33113;-58
2023/09/05 06:04:15;;;;;;;5.72;3.95;;;;;;;20.11;61.63;101355.87;5568714;32;33460;-56
2023/09/05 06:07:17;;;;;;;6.90;4.00;;;;;;;20.31;61.79;101350.91;5568011;32;34423;-57
2023/09/05 06:10:20;;;;;;;6.95;3.90;;;;;;;20.31;61.64;101346.28;5567079;32;33692;-57
2023/09/05 06:13:22;;;;;;;8.77;3.95;;;;;;;20.44;57.76;101343.69;5568020;32;34694;-56
2023/09/05 06:16:25;;;;;;;6.32;3.70;;;;;;;20.39;63.13;101334.56;5568435;32;34356;-57
2023/09/05 06:19:27;;;;;;;6.85;3.78;;;;;;;20.48;61.04;101336.47;5560924;32;33564;-57
2023/09/05 06:22:30;;;;;;;9.05;3.58;;;;;;;20.50;62.07;101332.31;5550592;32;33359;-57
2023/09/05 06:25:33;;;;;;;52.38;7.12;;;;;;;20.57;59.54;101329.13;5557231;32;33624;-57
2023/09/05 06:28:35;;;;;;;6.47;4.20;;;;;;;20.65;62.12;101337.25;5567914;32;34381;-57
2023/09/05 06:31:38;;;;;;;12.18;4.20;;;;;;;20.60;59.69;101334.72;5568665;32;33645;-56
2023/09/05 06:34:40;;;;;;;8.50;4.05;;;;;;;20.56;58.98;101338.37;5567463;31;34059;-57
2023/09/05 06:37:42;;;;;;;8.77;4.07;;;;;;;20.71;64.37;101343.31;5568020;32;34315;-58
2023/09/05 06:40:45;;;;;;;7.05;3.58;;;;;;;20.73;57.71;101343.81;5567865;32;33889;-57
2023/09/05 06:43:47;;;;;;;12.32;3.95;;;;;;;20.71;59.41;101337.88;5567910;32;33179;-57
2023/09/05 06:46:50;;;;;;;9.60;4.07;;;;;;;20.73;58.97;101343.00;5565832;32;33705;-56
2023/09/05 06:49:52;;;;;;;8.88;4.18;;;;;;;20.81;56.62;101348.44;5561055;32;33739;-58
2023/09/05 06:52:55;;;;;;;10.05;3.62;;;;;;;20.98;64.41;101350.28;5567101;32;33701;-57
2023/09/05 06:55:57;;;;;;;5.87;4.00;;;;;;;20.94;59.23;101357.53;5567733;32;33852;-57
2023/09/05 06:59:00;;;;;;;7.35;3.97;;;;;;;21.12;65.48;101356.34;5567027;32;34350;-57
2023/09/05 07:02:02;;;;;;;6.05;3.80;;;;;;;21.06;60.95;101346.75;5565785;32;33716;-57
2023/09/05 07:05:05;;;;;;;6.25;3.78;;;;;;;21.14;56.29;101347.81;5565943;32;33902;-57
2023/09/05 07:08:08;;;;;;;12.57;4.20;;;;;;;21.14;59.11;101349.75;5565921;32;34568;-56
2023/09/05 07:11:10;;;;;;;7.28;3.55;;;;;;;21.07;61.74;101350.25;5563385;32;33551;-57
2023/09/05 07:14:12;;;;;;;9.70;3.80;;;;;;;21.15;55.92;101352.13;5562571;32;33574;-57
2023/09/05 07:17:15;;;;;;;5.95;3.90;;;;;;;21.33;67.25;101353.66;5564944;32;32149;-57
2023/09/05 07:20:17;;;;;;;5.28;3.50;;;;;;;21.30;57.47;101362.50;5567046;32;33617;-57
2023/09/05 07:23:19;;;;;;;7.97;3.78;;;;;;;21.38;56.11;101362.81;5567143;32;33589;-57
2023/09/05 07:26:22;;;;;;;4.82;3.70;;;;;;;21.35;56.62;101354.12;5566446;32;33712;-58
2023/09/05 07:29:26;;;;;;;6.72;3.87;;;;;;;21.48;63.39;101362.41;5567379;32;34630;-57
2023/09/05 07:32:28;;;;;;;7.93;3.70;;;;;;;21.48;58.02;101360.50;5566523;32;34419;-57
2023/09/05 07:35:31;;;;;;;5.57;3.55;;;;;;;21.48;60.74;101360.50;5567235;32;33557;-57
2023/09/05 07:38:34;;;;;;;9.68;4.32;;;;;;;21.48;56.33;101357.75;5566511;32;34335;-58
2023/09/05 07:41:38;;;;;;;7.40;3.90;;;;;;;21.49;56.92;101364.00;5566370;32;33930;-56
2023/09/05 07:44:40;;;;;;;5.80;3.80;;;;;;;21.49;55.52;101358.56;5566694;32;33424;-56
2023/09/05 07:47:44;;;;;;;4.95;3.75;;;;;;;21.58;57.96;101362.03;5567816;32;33642;-58
2023/09/05 07:50:49;;;;;;;8.07;4.35;;;;;;;21.60;62.24;101357.06;5567178;32;33620;-57
2023/09/05 07:54:06;;;;;;;7.22;3.70;;;;;;;21.64;63.29;101360.72;5567484;32;33378;-56
2023/09/05 07:57:09;;;;;;;8.45;3.90;;;;;;;21.67;55.79;101364.72;5566467;32;33603;-56
2023/09/05 08:00:14;;;;;;;5.80;3.60;;;;;;;21.71;56.21;101360.19;5567263;32;33615;-57
2023/09/05 08:03:17;;;;;;;6.55;3.75;;;;;;;21.80;55.66;101371.84;5566056;32;34486;-57
2023/09/05 08:06:20;;;;;;;7.15;3.75;;;;;;;21.88;57.23;101360.06;5547428;32;33603;-56
2023/09/05 08:09:22;;;;;;;5.53;3.90;;;;;;;21.83;55.71;101359.47;5566119;32;34658;-57
2023/09/05 08:12:25;;;;;;;6.65;3.90;;;;;;;21.97;60.23;101369.00;5565356;32;33996;-58
2023/09/05 08:15:27;;;;;;;6.00;3.47;;;;;;;21.98;54.70;101362.37;5566622;32;33662;-56
2023/09/05 08:18:29;;;;;;;4.90;3.45;;;;;;;21.94;56.64;101360.66;5566048;32;33592;-57
2023/09/05 08:21:33;;;;;;;7.82;3.58;;;;;;;22.03;58.13;101345.81;5565872;32;33714;-59
2023/09/05 08:24:35;;;;;;;12.55;4.22;;;;;;;22.07;54.26;101340.47;5565497;32;33290;-57
2023/09/05 08:27:38;;;;;;;5.30;3.42;;;;;;;21.98;53.36;101342.47;5564856;32;34098;-57
2023/09/05 08:30:40;;;;;;;11.88;3.80;;;;;;;22.06;54.10;101347.09;5566095;32;34386;-57
2023/09/05 08:33:42;;;;;;;42.47;6.10;;;;;;;22.21;57.93;101351.16;5561674;32;33554;-57
2023/09/05 08:36:44;;;;;;;6.47;3.53;;;;;;;22.27;53.12;101347.09;5552101;32;33554;-57
2023/09/05 08:39:47;;;;;;;8.75;3.53;;;;;;;22.25;53.44;101350.16;5566341;32;33975;-57
2023/09/05 08:42:51;;;;;;;31.40;4.97;;;;;;;22.35;52.41;101348.94;5564999;32;33559;-57
2023/09/05 08:45:54;;;;;;;41.20;5.60;;;;;;;22.41;54.76;101342.13;5564908;32;33645;-57
2023/09/05 08:48:57;;;;;;;8.70;3.78;;;;;;;22.35;56.21;101340.75;5566028;32;34379;-58
2023/09/05 08:52:05;;;;;;;73.53;8.27;;;;;;;22.42;52.22;101330.06;5568263;32;33542;-57
2023/09/05 08:55:09;;;;;;;5.82;3.70;;;;;;;22.49;54.13;101340.44;5569264;32;33753;-56
2023/09/05 08:58:15;;;;;;;28.70;5.00;;;;;;;22.53;50.71;101333.16;5566186;32;34425;-57
2023/09/05 09:01:18;;;;;;;23.33;5.53;;;;;;;22.59;55.28;101339.22;5568713;32;34224;-57
2023/09/05 09:04:26;;;;;;;22.50;4.25;;;;;;;22.57;57.59;101330.56;5564057;32;33680;-57
2023/09/05 09:07:29;;;;;;;10.90;4.12;;;;;;;22.60;52.97;101332.59;5567556;32;34358;-57
2023/09/05 09:10:35;;;;;;;13.68;3.87;;;;;;;22.66;52.42;101325.78;5557758;32;33597;-57
2023/09/05 09:13:38;;;;;;;22.52;4.40;;;;;;;22.67;52.98;101325.44;5557745;32;34358;-57
2023/09/05 09:16:45;;;;;;;15.13;4.37;;;;;;;22.75;51.17;101310.09;5567905;32;33829;-57
2023/09/05 09:19:48;;;;;;;13.80;4.43;;;;;;;22.83;52.84;101308.37;5565859;32;33776;-57
2023/09/05 09:22:51;;;;;;;9.45;3.55;;;;;;;22.86;50.45;101318.63;5561553;32;32240;-57
2023/09/05 09:25:55;;;;;;;11.70;4.12;;;;;;;22.79;50.60;101297.34;5552033;32;34227;-57
2023/09/05 09:28:58;;;;;;;12.88;3.65;;;;;;;22.93;51.28;101303.28;5567030;32;33820;-56
2023/09/05 09:32:04;;;;;;;8.32;3.55;;;;;;;22.95;51.73;101298.28;5568862;32;34397;-57
2023/09/05 09:35:10;;;;;;;11.07;4.10;;;;;;;22.94;52.75;101304.87;5568536;32;33658;-58
2023/09/05 09:38:13;;;;;;;7.37;3.75;;;;;;;22.95;50.11;101306.50;5568469;32;33600;-57
2023/09/05 09:41:20;;;;;;;5.65;3.20;;;;;;;22.96;52.49;101305.34;5568396;32;33195;-57
2023/09/05 09:44:30;;;;;;;16.33;7.93;;;;;;;22.97;52.46;101287.78;5568495;32;34381;-56
2023/09/05 09:47:34;;;;;;;5.28;3.60;;;;;;;23.00;49.38;101285.53;5567931;32;34090;-57
2023/09/05 09:50:39;;;;;;;6.37;3.62;;;;;;;23.02;52.11;101285.97;5562753;32;33921;-57
2023/09/05 09:53:45;;;;;;;9.63;4.00;;;;;;;23.03;54.61;101290.31;5567646;32;34390;-58
2023/09/05 09:56:48;;;;;;;7.68;3.58;;;;;;;23.05;51.35;101288.84;5565994;32;33294;-57
2023/09/05 09:59:57;;;;;;;7.03;3.53;;;;;;;23.08;49.86;101279.12;5564560;32;33271;-56
2023/09/05 10:03:00;;;;;;;7.93;3.92;;;;;;;23.19;51.77;101286.53;5566733;32;34366;-57
2023/09/05 10:06:06;;;;;;;7.47;3.70;;;;;;;23.17;51.09;101266.91;5567144;32;34347;-58
2023/09/05 10:09:09;;;;;;;5.12;3.00;;;;;;;23.29;49.24;101268.84;5569017;32;33694;-57
2023/09/05 10:12:12;;;;;;;5.20;3.33;;;;;;;23.36;51.95;101273.75;5565850;32;33624;-57
2023/09/05 10:15:15;;;;;;;4.22;2.95;;;;;;;23.38;49.49;101271.47;5564567;32;33321;-56
2023/09/05 10:18:19;;;;;;;8.45;3.40;;;;;;;23.38;49.30;101266.00;5565730;32;33641;-57
2023/09/05 10:21:25;;;;;;;3.62;2.78;;;;;;;23.43;49.83;101273.94;5565359;32;33369;-59
2023/09/05 10:24:30;;;;;;;5.07;3.47;;;;;;;23.49;50.12;101260.84;5568304;32;33384;-58
2023/09/05 10:27:33;;;;;;;5.55;3.05;;;;;;;23.53;49.31;101261.72;5568264;32;33385;-57
2023/09/05 10:30:43;;;;;;;24.95;5.07;;;;;;;23.59;48.99;101260.34;5565660;32;33556;-57
2023/09/05 10:33:46;;;;;;;7.12;3.25;;;;;;;23.66;50.80;101255.84;5564003;32;34252;-57
2023/09/05 10:36:50;;;;;;;19.58;3.40;;;;;;;23.64;48.59;101260.09;5550873;32;34201;-58
2023/09/05 10:39:55;;;;;;;5.90;3.17;;;;;;;23.70;50.24;101255.19;5554489;32;33748;-58
2023/09/05 10:43:00;;;;;;;29.02;4.97;;;;;;;23.75;48.96;101255.75;5562748;32;34376;-57
2023/09/05 10:46:02;;;;;;;9.70;3.10;;;;;;;23.79;49.33;101248.44;5553663;32;34134;-58
2023/09/05 10:49:14;;;;;;;6.22;3.25;;;;;;;23.84;52.02;101250.94;5563086;32;33826;-57
2023/09/05 10:52:21;;;;;;;7.45;3.25;;;;;;;23.70;48.03;101247.78;5567469;32;33651;-57
2023/09/05 10:55:24;;;;;;;6.05;3.28;;;;;;;23.64;48.43;101239.00;5560894;32;33799;-57
2023/09/05 10:58:38;;;;;;;4.93;3.50;;;;;;;23.82;51.56;101244.22;5559415;32;34391;-57
2023/09/05 11:01:45;;;;;;;61.50;6.50;;;;;;;23.82;51.44;101242.25;5557143;32;33303;-57
2023/09/05 11:04:47;;;;;;;5.25;3.20;;;;;;;23.87;48.03;101233.81;5556375;32;33624;-56
2023/09/05 11:07:51;;;;;;;8.27;3.55;;;;;;;23.91;49.01;101231.16;5565506;32;34431;-58
2023/09/05 11:10:55;;;;;;;19.83;3.37;;;;;;;23.87;50.24;101236.53;5554291;32;33732;-58
2023/09/05 11:13:58;;;;;;;7.60;3.40;;;;;;;23.90;49.28;101233.09;5555913;32;34223;-57
2023/09/05 11:17:01;;;;;;;4.95;3.33;;;;;;;23.99;51.09;101221.19;5568676;32;34406;-57
2023/09/05 11:20:07;;;;;;;5.50;2.83;;;;;;;24.01;47.18;101224.38;5565915;32;34349;-57
2023/09/05 11:23:17;;;;;;;3.28;2.65;;;;;;;24.10;48.47;101225.78;5565543;32;33634;-57
2023/09/05 11:26:21;;;;;;;3.92;2.75;;;;;;;24.19;47.06;101222.88;5568015;32;33428;-58
2023/09/05 11:29:27;;;;;;;11.63;3.60;;;;;;;24.15;47.40;101219.28;5568046;32;33281;-57
2023/09/05 11:32:35;;;;;;;13.93;3.47;;;;;;;24.12;49.58;101233.66;5562830;32;33595;-57
2023/09/05 11:35:38;;;;;;;4.43;3.03;;;;;;;24.21;48.23;101226.09;5567597;31;33731;-57
2023/09/05 11:38:49;;;;;;;8.27;3.45;;;;;;;24.03;47.54;101222.06;5567189;32;34416;-57
2023/09/05 11:41:54;;;;;;;6.28;2.80;;;;;;;24.02;50.45;101217.75;5567154;32;33688;-58
2023/09/05 11:44:57;;;;;;;6.03;2.70;;;;;;;24.07;49.50;101217.47;5561239;32;33290;-57
2023/09/05 11:48:11;;;;;;;8.75;3.00;;;;;;;24.21;47.06;101214.34;5559899;32;33214;-57
2023/09/05 11:51:15;;;;;;;4.43;2.55;;;;;;;24.32;48.19;101212.66;5548756;32;33692;-57
2023/09/05 11:54:17;;;;;;;3.67;2.62;;;;;;;24.34;46.45;101208.41;5552646;32;34335;-58
2023/09/05 11:57:21;;;;;;;3.83;2.75;;;;;;;24.34;45.92;101202.13;5563322;32;34337;-57
2023/09/05 12:00:25;;;;;;;7.37;2.42;;;;;;;24.42;48.41;101197.66;5565494;32;33755;-57
2023/09/05 12:03:29;;;;;;;23.60;4.18;;;;;;;24.39;48.98;101201.84;5551734;32;33602;-58
2023/09/05 12:06:34;;;;;;;35.15;4.70;;;;;;;24.32;47.57;101198.94;5548459;32;33666;-57
2023/09/05 12:09:38;;;;;;;9.48;2.78;;;;;;;24.22;48.53;101199.47;5562906;32;34268;-58
2023/09/05 12:12:52;;;;;;;4.70;2.58;;;;;;;24.20;46.92;101191.59;5567014;32;33667;-58
2023/09/05 12:15:56;;;;;;;10.93;3.15;;;;;;;24.27;46.51;101185.50;5567226;32;33718;-57
2023/09/05 12:18:59;;;;;;;5.00;2.72;;;;;;;24.39;49.14;101199.13;5567770;32;34404;-58
2023/09/05 12:22:01;;;;;;;27.10;4.25;;;;;;;24.53;45.82;101177.56;5548309;32;33616;-57
2023/09/05 12:25:14;;;;;;;12.60;3.20;;;;;;;24.50;47.89;101193.91;5567987;32;33631;-57
2023/09/05 12:28:24;;;;;;;13.52;5.15;;;;;;;24.58;45.35;101185.53;5569939;32;33372;-57
2023/09/05 12:31:28;;;;;;;124.55;10.25;;;;;;;24.73;45.32;101185.84;5568753;32;34420;-58
2023/09/05 12:34:30;;;;;;;8.88;2.83;;;;;;;24.71;47.19;101179.94;5569808;32;33703;-57
2023/09/05 12:37:33;;;;;;;12.23;2.72;;;;;;;24.65;47.96;101173.94;5570148;32;33658;-57
2023/09/05 12:40:37;;;;;;;7.37;2.45;;;;;;;24.56;46.01;101179.59;5570048;32;33377;-58
2023/09/05 12:43:39;;;;;;;18.45;2.83;;;;;;;24.55;44.72;101175.25;5568990;32;33763;-57
2023/09/05 12:46:43;;;;;;;15.07;3.75;;;;;;;24.57;47.33;101166.69;5565626;32;33718;-57
2023/09/05 12:49:47;;;;;;;8.88;2.55;;;;;;;24.55;44.92;101160.78;5569813;32;34352;-58
2023/09/05 12:53:09;;;;;;;7.50;2.47;;;;;;;24.66;45.42;101163.75;5569691;32;33809;-57
2023/09/05 12:56:12;;;;;;;11.63;2.80;;;;;;;24.67;45.58;101171.63;5568008;32;33711;-58
2023/09/05 12:59:17;;;;;;;10.68;3.08;;;;;;;24.60;46.36;101168.69;5568040;32;34319;-57
2023/09/05 13:02:21;;;;;;;4.30;3.00;;;;;;;24.57;45.91;101162.00;5567571;32;33760;-57
2023/09/05 13:05:23;;;;;;;16.42;3.40;;;;;;;24.54;45.53;101156.44;5569313;32;33583;-57
2023/09/05 13:08:26;;;;;;;10.75;3.55;;;;;;;24.60;46.10;101161.31;5568317;32;33354;-57
2023/09/05 13:11:29;;;;;;;55.67;9.98;;;;;;;24.63;47.42;101165.25;5568583;32;34304;-57
2023/09/05 13:14:31;;;;;;;5.82;2.87;;;;;;;24.67;45.02;101157.94;5569440;32;34440;-57
2023/09/05 13:17:34;;;;;;;4.93;2.87;;;;;;;24.70;45.19;101150.91;5570327;32;33757;-57
2023/09/05 13:20:36;;;;;;;4.37;2.78;;;;;;;24.71;44.40;101153.31;5570088;32;33682;-58
2023/09/05 13:23:39;;;;;;;4.45;2.42;;;;;;;24.76;44.63;101139.31;5569775;32;33503;-58
2023/09/05 13:26:41;;;;;;;3.67;2.35;;;;;;;24.75;47.83;101142.41;5569136;32;33670;-58
2023/09/05 13:29:44;;;;;;;16.17;3.90;;;;;;;24.81;45.77;101141.78;5550331;32;33634;-57
2023/09/05 13:32:46;;;;;;;5.45;2.80;;;;;;;24.84;46.48;101145.75;5550656;32;33649;-58
2023/09/05 13:35:49;;;;;;;3.65;2.47;;;;;;;24.89;44.73;101137.25;5550006;32;33670;-57
2023/09/05 13:38:51;;;;;;;14.27;3.87;;;;;;;24.91;46.07;101136.91;5550537;32;34422;-57
2023/09/05 13:41:54;;;;;;;10.57;3.45;;;;;;;24.85;47.33;101145.37;5550361;32;33309;-58
2023/09/05 13:44:56;;;;;;;9.05;3.30;;;;;;;24.93;45.27;101137.31;5549288;32;33154;-57
2023/09/05 13:48:00;;;;;;;29.40;4.20;;;;;;;25.04;44.46;101146.56;5550184;32;34466;-57
2023/09/05 13:51:03;;;;;;;16.45;3.30;;;;;;;25.01;45.21;101150.03;5549111;32;33591;-57
2023/09/05 13:54:05;;;;;;;13.45;3.10;;;;;;;24.95;44.54;101149.53;5550048;32;34441;-57
2023/09/05 13:57:08;;;;;;;3.80;2.72;;;;;;;24.87;46.16;101147.78;5550186;32;34307;-57
2023/09/05 14:00:11;;;;;;;9.75;3.00;;;;;;;24.83;44.83;101144.16;5550281;32;34313;-57
2023/09/05 14:03:15;;;;;;;11.63;2.70;;;;;;;24.80;45.37;101151.16;5550314;32;34402;-57
2023/09/05 14:06:20;;;;;;;5.30;2.80;;;;;;;24.82;45.65;101139.84;5549939;32;34453;-57
2023/09/05 14:09:23;;;;;;;13.25;2.65;;;;;;;24.92;44.65;101143.97;5550061;32;33627;-57
2023/09/05 14:12:25;;;;;;;11.48;3.42;;;;;;;24.92;43.77;101138.47;5550018;32;33714;-58
2023/09/05 14:15:28;;;;;;;14.27;3.50;;;;;;;24.88;45.64;101143.09;5550309;32;34420;-57
2023/09/05 14:18:30;;;;;;;8.50;2.50;;;;;;;24.80;47.90;101142.94;5549985;32;34151;-58
2023/09/05 14:21:34;;;;;;;3.72;2.70;;;;;;;24.83;44.52;101134.00;5550175;32;34258;-58
2023/09/05 14:25:07;;;;;;;15.02;2.90;;;;;;;24.84;44.88;101137.53;5552636;32;33457;-58
2023/09/05 14:28:51;;;;;;;;;;;;;;;24.88;45.83;101129.38;5549463;32;34183;-57
2023/09/05 14:31:53;;;;;;;7.15;2.50;;;;;;;24.94;46.08;101134.22;5556213;32;34643;-58
2023/09/05 14:34:55;;;;;;;9.38;3.03;;;;;;;25.00;46.21;101130.03;5569408;32;33136;-57
2023/09/05 14:37:57;;;;;;;18.12;3.83;;;;;;;24.98;46.24;101137.03;5563373;32;34269;-58
2023/09/05 14:41:00;;;;;;;7.45;3.25;;;;;;;24.99;48.01;101138.63;5559715;32;33803;-58
2023/09/05 14:44:04;;;;;;;4.60;2.95;;;;;;;24.88;46.25;101132.91;5569639;32;33701;-58
2023/09/05 14:47:07;;;;;;;13.20;3.25;;;;;;;24.80;45.80;101139.38;5568533;32;33580;-57
2023/09/05 14:50:09;;;;;;;9.15;3.17;;;;;;;24.73;46.98;101134.53;5569048;32;33816;-58
2023/09/05 14:53:12;;;;;;;4.97;2.83;;;;;;;24.67;47.08;101127.78;5569307;32;34327;-57
2023/09/05 14:56:14;;;;;;;9.95;3.03;;;;;;;24.65;50.20;101124.56;5569243;32;34515;-58
2023/09/05 14:59:17;;;;;;;4.03;2.67;;;;;;;24.58;48.14;101122.47;5569332;32;33579;-58
2023/09/05 15:02:19;;;;;;;4.55;3.28;;;;;;;24.61;46.70;101121.75;5569294;32;34467;-57
2023/09/05 15:05:22;;;;;;;7.35;2.40;;;;;;;24.74;46.69;101127.12;5569385;32;34429;-57
2023/09/05 15:08:24;;;;;;;6.43;3.08;;;;;;;24.75;45.43;101129.50;5569127;32;33886;-58
2023/09/05 15:11:27;;;;;;;3.83;2.53;;;;;;;24.76;46.07;101127.56;5569141;32;34389;-56
